Archival Weather

Republic

Farmingdale, New York (KFRG)

Report from: Wednesday, February 7, 2024 2:53 AM EST
Current time: Friday, June 14, 2024 8:57 AM EDT

Current weather – Weather history – Daily summaries
Weather forecast

Temperature-1.1°C (30.0°F)
Wind chill-4.4°C (24.1°F)
Dew point-5.6°C (21.9°F)
Winds 5 kts (2.6 m/s, 5.8 mph) North (10°)
Visibility10 mi. (16.1 km)
Clouds Sky clear
Altimeter30.24 in.Hg (1024 mB)
Relative humidity71 %
Density altitude-2,274 ft. (-693 m)
Sea-level pressure102.4 kPa (1024 mB, 30.24 in.Hg)
Remarks Fully automated report
Automated weather observing station without precipitation discriminator
Freezing rain sensor not operating
Flight conditions Visual Meteorological Conditions
Raw dataKFRG 070753Z AUTO 01005KT 10SM CLR M01/M06 A3024 RMK AO1 SLP240 T10111056 FZRANO
An error has occurred. This application may no longer respond until reloaded. Reload 🗙